F17

Center Municipal Airport

Center, Texas, USA
METAR KF17 212235Z AUTO 20008KT 10SM CLR 37/19 A2992 RMK AO2 T03740192
Observed Flight Rules
Jul-21 @ 22:35 UTC (24 minutes ago) Visual Flight Rules
Wind Visibility Clouds
200° at 8 knots 10 miles
  • Clear skies
Temperatures Readings
Current 37°C / 99°F
Dewpoint 19°C / 66°F
Humidity 35%
Altimeter 29.92" Hg
Pressure 1013 hPa
Elevation 97
METAR KF17 212235Z AUTO 20008KT 10SM CLR 37/19 A2992 RMK AO2 T03740192
Observed Flight Rules
Jul-21 @ 22:35 UTC
(24 minutes ago)
VFR
Wind Visibility
200° at 8 knots 10 miles
Clouds
  • Clear skies
Temperature Dewpoint
37°C / 99°F 19°C / 66°F
Humidity Altimeter Pressure
35% 29.92" Hg 1013 hPa